Metar Aviation Weather Data YMML

14°C Temp
5°C Dewpoint
% Humidity
Temperature
16 KM/H
10 MPH
9 KTS
330°
North North
West

Wind Speed
Mostly Cloudy
Conditions
Pressure 1020.92 (hPa) - 30.15 (in)
Visibility 6.2 (mi) - 10 (km)

Current Conditions
YMML
Metar :YMML 240400Z 33009KT 280V350 9999 BKN035 14/05 Q1021 FM0400 MOD TURB BLW 5000FT
Wed 24th July 14:00 pm

  Metar Aviation API Data Provided by https://www.checkwx.com/ PHP scripts by weather34.com ©2019